Inchelium, Washington
Current Conditions -  °F | °C
As of 8:53 PM on Thursday 30 Oct 2014 (Local Time) from KDEW Reporting Station
Clear Clear  
Wind Chill: 11°   Ceiling: Unl
Heat Index: 11°   Visibility: 10mi
Dew Point:   Wind: 10mph
Humidity: 74%   Direction: 20°NNE
Pressure: 29.86"   Gusts: NA
Location:  48.34°N, 118.25°W
Report Text: KDEW 310353Z AUTO 02009KT 10SM CLR 11/06 A2986 RMK AO2 SLP114 T01060061
Loading
Personal Weather Stations






























Interactive Weather Map
Tropical Storm Tracking
New forecast layout! Learn more

10-Day Weather Forecast

Advertisements
Track Severe Weather on mobile